Аэропорт: Звартноц. Ереван

ICAO: UDYZ

METAR:
2018/09/19 07:30
UDYZ 190730Z VRB02KT 9999 NSC 24/07 Q1019 R09/000070 NOSIG
METAR:
2018/09/19 06:00
TAF UDYZ 190503Z 1906/2006 17006KT 9999 FEW040 SCT100 
      TEMPO 1908/1912 VRB16KT FEW040CB 
      TEMPO 1912/1922 04020G30KT SCT040CB